createdAt,value
2018-07-31T00:01:10.176Z,20.99
2018-07-31T00:02:10.161Z,21.01
2018-07-31T00:04:03.115Z,20.99
2018-07-31T00:05:03.073Z,20.83
2018-07-31T00:06:56.460Z,21.05
2018-07-31T00:07:56.459Z,20.84
2018-07-31T00:09:49.846Z,20.95
2018-07-31T00:10:49.840Z,20.95
2018-07-31T00:12:42.694Z,20.90
2018-07-31T00:13:42.689Z,20.89
2018-07-31T00:15:36.057Z,20.91
2018-07-31T00:16:36.057Z,20.81
2018-07-31T00:18:29.365Z,20.95
2018-07-31T00:19:29.384Z,20.81
2018-07-31T00:21:22.775Z,20.91
2018-07-31T00:22:22.724Z,20.89
2018-07-31T00:24:16.089Z,20.83
2018-07-31T00:25:16.084Z,20.90
2018-07-31T00:27:09.451Z,20.80
2018-07-31T00:28:09.436Z,20.81
2018-07-31T00:30:02.799Z,20.84
2018-07-31T00:31:02.796Z,20.89
2018-07-31T00:32:55.694Z,20.87
2018-07-31T00:33:55.677Z,20.83
2018-07-31T00:35:49.092Z,20.98
2018-07-31T00:36:49.062Z,20.89
2018-07-31T00:38:41.943Z,20.95
2018-07-31T00:39:41.946Z,20.98
2018-07-31T00:41:34.844Z,20.91
2018-07-31T00:42:34.833Z,20.96
2018-07-31T00:44:28.192Z,20.86
2018-07-31T00:45:28.168Z,20.87
2018-07-31T00:47:21.518Z,20.65
2018-07-31T00:48:21.502Z,20.71
2018-07-31T00:50:14.837Z,20.62
2018-07-31T00:51:14.835Z,20.62
2018-07-31T00:53:07.748Z,20.54
2018-07-31T00:54:07.746Z,20.53
2018-07-31T00:55:07.719Z,20.47
2018-07-31T00:56:07.724Z,20.42
2018-07-31T00:57:07.726Z,20.43
2018-07-31T00:58:07.730Z,20.34
2018-07-31T00:59:07.736Z,20.35
2018-07-31T01:00:07.740Z,20.30
2018-07-31T01:01:07.747Z,20.34
2018-07-31T01:02:07.749Z,20.38
2018-07-31T01:03:07.754Z,20.28
2018-07-31T01:04:07.757Z,20.25
2018-07-31T01:05:07.767Z,20.27
2018-07-31T01:06:07.768Z,20.21
2018-07-31T01:07:07.770Z,20.25
2018-07-31T01:08:07.775Z,20.24
2018-07-31T01:09:07.779Z,20.27
2018-07-31T01:10:07.783Z,20.24
2018-07-31T01:11:07.795Z,20.20
2018-07-31T01:12:07.793Z,20.25
2018-07-31T01:13:07.800Z,20.23
2018-07-31T01:14:07.805Z,20.21
2018-07-31T01:15:07.804Z,20.24
2018-07-31T01:16:07.807Z,20.18
2018-07-31T01:17:07.814Z,20.21
2018-07-31T01:18:07.823Z,20.21
2018-07-31T01:19:07.822Z,20.23
2018-07-31T01:20:07.828Z,20.18
2018-07-31T01:21:07.831Z,20.21
2018-07-31T01:22:07.840Z,20.23
2018-07-31T01:23:07.898Z,20.27
2018-07-31T01:24:07.852Z,20.20
2018-07-31T01:25:07.900Z,20.21
2018-07-31T01:26:07.859Z,20.27
2018-07-31T01:27:07.855Z,20.20
2018-07-31T01:28:07.861Z,20.23
2018-07-31T01:29:07.861Z,20.20
2018-07-31T01:30:07.869Z,20.16
2018-07-31T01:31:07.874Z,20.06
2018-07-31T01:32:07.877Z,20.16
2018-07-31T01:33:07.879Z,20.18
2018-07-31T01:34:07.885Z,20.10
2018-07-31T01:35:07.911Z,20.20
2018-07-31T01:36:07.893Z,20.20
2018-07-31T01:37:07.901Z,20.16
2018-07-31T01:38:07.902Z,20.08
2018-07-31T01:39:07.908Z,20.05
2018-07-31T01:40:07.911Z,20.08
2018-07-31T01:41:07.917Z,19.98
2018-07-31T01:42:07.927Z,20.02
2018-07-31T01:43:07.922Z,20.00
2018-07-31T01:44:07.928Z,19.98
2018-07-31T01:45:07.934Z,19.83
2018-07-31T01:46:07.937Z,19.86
2018-07-31T01:47:07.941Z,19.84
2018-07-31T01:48:07.953Z,19.87
2018-07-31T01:49:07.949Z,19.87
2018-07-31T01:50:07.953Z,19.87
2018-07-31T01:51:07.957Z,19.86
2018-07-31T01:52:07.960Z,19.79
2018-07-31T01:53:07.972Z,19.88
2018-07-31T01:54:07.968Z,19.84
2018-07-31T01:55:07.976Z,19.84
2018-07-31T01:56:07.978Z,19.88
2018-07-31T01:57:07.993Z,19.87
2018-07-31T01:58:07.982Z,19.91
2018-07-31T01:59:07.987Z,19.83
2018-07-31T02:00:07.996Z,19.87
2018-07-31T02:01:08.005Z,19.86
2018-07-31T02:02:08.004Z,19.87
2018-07-31T02:03:08.013Z,19.88
2018-07-31T02:04:08.012Z,19.84
2018-07-31T02:05:08.014Z,19.94
2018-07-31T02:06:08.049Z,19.93
2018-07-31T02:07:08.050Z,19.93
2018-07-31T02:08:08.027Z,19.86
2018-07-31T02:09:08.029Z,19.90
2018-07-31T02:10:08.037Z,19.83
2018-07-31T02:11:08.038Z,19.80
2018-07-31T02:12:08.044Z,19.79
2018-07-31T02:13:08.046Z,19.75
2018-07-31T02:14:08.048Z,19.78
2018-07-31T02:15:08.062Z,19.79
2018-07-31T02:16:08.063Z,19.73
2018-07-31T02:17:08.075Z,19.76
2018-07-31T02:18:08.071Z,19.68
2018-07-31T02:19:08.072Z,19.75
2018-07-31T02:20:08.076Z,19.68
2018-07-31T02:21:08.093Z,19.73
2018-07-31T02:22:08.084Z,19.75
2018-07-31T02:23:08.091Z,19.78
2018-07-31T02:24:08.092Z,19.73
2018-07-31T02:25:08.094Z,19.69
2018-07-31T02:26:08.097Z,19.70
2018-07-31T02:27:08.103Z,19.63
2018-07-31T02:28:08.158Z,19.68
2018-07-31T02:29:08.151Z,19.57
2018-07-31T02:30:08.114Z,19.61
2018-07-31T02:31:08.163Z,19.73
2018-07-31T02:32:08.127Z,19.70
2018-07-31T02:33:08.128Z,19.66
2018-07-31T02:34:08.132Z,19.68
2018-07-31T02:35:08.134Z,19.76
2018-07-31T02:36:08.138Z,19.70
2018-07-31T02:37:08.143Z,19.66
2018-07-31T02:38:08.147Z,19.68
2018-07-31T02:39:08.149Z,19.72
2018-07-31T02:40:08.156Z,19.68
2018-07-31T02:41:08.157Z,19.68
2018-07-31T02:42:08.163Z,19.66
2018-07-31T02:43:08.179Z,19.66
2018-07-31T02:44:08.174Z,19.66
2018-07-31T02:45:08.175Z,19.63
2018-07-31T02:46:08.179Z,19.65
2018-07-31T02:47:08.182Z,19.53
2018-07-31T02:48:08.190Z,19.66
2018-07-31T02:49:08.189Z,19.61
2018-07-31T02:50:08.195Z,19.69
2018-07-31T02:51:08.199Z,19.63
2018-07-31T02:52:08.211Z,19.69
2018-07-31T02:53:08.206Z,19.63
2018-07-31T02:54:08.208Z,19.65
2018-07-31T02:55:08.229Z,19.69
2018-07-31T02:56:08.221Z,19.63
2018-07-31T02:57:08.222Z,19.68
2018-07-31T02:58:08.271Z,19.63
2018-07-31T02:59:08.252Z,19.66
2018-07-31T03:00:08.234Z,19.65
2018-07-31T03:01:08.238Z,19.58
2018-07-31T03:02:08.243Z,19.55
2018-07-31T03:03:08.246Z,19.55
2018-07-31T03:04:08.251Z,19.46
2018-07-31T03:05:08.257Z,19.42
2018-07-31T03:06:08.260Z,19.53
2018-07-31T03:07:08.263Z,19.46
2018-07-31T03:08:08.301Z,19.47
2018-07-31T03:09:08.269Z,19.43
2018-07-31T03:10:08.273Z,19.42
2018-07-31T03:11:08.279Z,19.53
2018-07-31T03:12:08.283Z,19.51
2018-07-31T03:13:08.289Z,19.50
2018-07-31T03:14:08.290Z,19.43
2018-07-31T03:15:08.294Z,19.46
2018-07-31T03:16:08.298Z,19.48
2018-07-31T03:17:08.301Z,19.51
2018-07-31T03:18:08.306Z,19.50
2018-07-31T03:19:08.309Z,19.54
2018-07-31T03:20:08.332Z,19.50
2018-07-31T03:21:08.317Z,19.48
2018-07-31T03:22:08.330Z,19.43
2018-07-31T03:23:08.334Z,19.48
2018-07-31T03:24:08.329Z,19.47
2018-07-31T03:25:08.330Z,19.40
2018-07-31T03:26:08.337Z,19.48
2018-07-31T03:27:08.356Z,19.48
2018-07-31T03:28:08.355Z,19.46
2018-07-31T03:29:08.347Z,19.50
2018-07-31T03:30:08.351Z,19.48
2018-07-31T03:31:08.375Z,19.42
2018-07-31T03:32:08.365Z,19.39
2018-07-31T03:33:08.380Z,19.50
2018-07-31T03:34:08.375Z,19.47
2018-07-31T03:35:08.371Z,19.32
2018-07-31T03:36:08.376Z,19.35
2018-07-31T03:37:08.380Z,19.36
2018-07-31T03:38:08.383Z,19.40
2018-07-31T03:39:08.389Z,19.39
2018-07-31T03:40:08.391Z,19.43
2018-07-31T03:41:08.395Z,19.42
2018-07-31T03:42:08.411Z,19.43
2018-07-31T03:43:08.407Z,19.36
2018-07-31T03:44:08.407Z,19.39
2018-07-31T03:45:08.413Z,19.36
2018-07-31T03:46:08.413Z,19.36
2018-07-31T03:47:08.418Z,19.36
2018-07-31T03:48:08.422Z,19.29
2018-07-31T03:49:08.432Z,19.18
2018-07-31T03:50:08.479Z,19.17
2018-07-31T03:51:08.435Z,19.18
2018-07-31T03:52:08.437Z,19.18
2018-07-31T03:53:08.440Z,19.23
2018-07-31T03:54:08.444Z,19.21
2018-07-31T03:55:08.447Z,19.23
2018-07-31T03:56:08.453Z,19.23
2018-07-31T03:57:08.459Z,19.28
2018-07-31T03:58:08.460Z,19.28
2018-07-31T03:59:08.463Z,19.21
2018-07-31T04:00:08.466Z,19.24
2018-07-31T04:01:08.468Z,19.23
2018-07-31T04:02:08.474Z,19.18
2018-07-31T04:03:08.476Z,19.21
2018-07-31T04:04:08.483Z,19.21
2018-07-31T04:05:08.485Z,19.15
2018-07-31T04:06:08.489Z,19.17
2018-07-31T04:07:08.492Z,19.18
2018-07-31T04:08:08.496Z,19.25
2018-07-31T04:09:08.500Z,19.21
2018-07-31T04:10:08.502Z,19.31
2018-07-31T04:11:08.510Z,19.31
2018-07-31T04:12:08.511Z,19.35
2018-07-31T04:13:08.516Z,19.39
2018-07-31T04:14:08.519Z,19.39
2018-07-31T04:15:08.523Z,19.32
2018-07-31T04:16:08.533Z,19.28
2018-07-31T04:17:08.534Z,19.23
2018-07-31T04:18:08.534Z,19.23
2018-07-31T04:19:08.541Z,19.21
2018-07-31T04:20:08.541Z,19.24
2018-07-31T04:21:08.545Z,19.32
2018-07-31T04:22:08.556Z,19.25
2018-07-31T04:23:08.552Z,19.28
2018-07-31T04:24:08.560Z,19.32
2018-07-31T04:25:08.560Z,19.39
2018-07-31T04:26:08.573Z,19.48
2018-07-31T04:27:08.566Z,19.39
2018-07-31T04:28:08.571Z,19.48
2018-07-31T04:29:08.575Z,19.46
2018-07-31T04:30:08.588Z,19.48
2018-07-31T04:31:08.581Z,19.47
2018-07-31T04:32:08.586Z,19.50
2018-07-31T04:33:08.591Z,19.53
2018-07-31T04:34:08.592Z,19.60
2018-07-31T04:35:08.597Z,19.66
2018-07-31T04:36:08.606Z,19.54
2018-07-31T04:37:08.602Z,19.75
2018-07-31T04:38:08.608Z,19.73
2018-07-31T04:39:08.613Z,19.75
2018-07-31T04:40:08.615Z,19.75
2018-07-31T04:41:08.631Z,19.80
2018-07-31T04:42:08.623Z,19.80
2018-07-31T04:43:08.626Z,19.84
2018-07-31T04:44:08.627Z,19.84
2018-07-31T04:45:08.642Z,19.84
2018-07-31T04:46:08.639Z,19.80
2018-07-31T04:47:08.643Z,19.90
2018-07-31T04:48:08.654Z,19.88
2018-07-31T04:49:08.658Z,19.86
2018-07-31T04:50:08.655Z,19.86
2018-07-31T04:51:08.659Z,19.83
2018-07-31T04:52:08.666Z,19.91
2018-07-31T04:53:08.673Z,19.83
2018-07-31T04:54:08.669Z,19.88
2018-07-31T04:55:08.681Z,19.95
2018-07-31T04:56:08.679Z,19.94
2018-07-31T04:57:08.685Z,19.94
2018-07-31T04:58:08.685Z,19.95
2018-07-31T04:59:08.691Z,19.95
2018-07-31T05:00:08.695Z,19.94
2018-07-31T05:01:08.698Z,19.94
2018-07-31T05:02:08.702Z,19.98
2018-07-31T05:03:08.706Z,19.95
2018-07-31T05:04:08.710Z,20.05
2018-07-31T05:05:08.713Z,20.10
2018-07-31T05:06:08.722Z,20.05
2018-07-31T05:07:08.722Z,20.18
2018-07-31T05:08:08.725Z,20.23
2018-07-31T05:09:08.732Z,20.25
2018-07-31T05:10:08.733Z,20.25
2018-07-31T05:11:08.793Z,20.38
2018-07-31T05:12:08.743Z,20.39
2018-07-31T05:13:08.745Z,20.43
2018-07-31T05:14:08.748Z,20.56
2018-07-31T05:15:08.754Z,20.64
2018-07-31T05:16:08.759Z,20.65
2018-07-31T05:17:08.762Z,20.68
2018-07-31T05:18:08.795Z,20.69
2018-07-31T05:19:08.770Z,20.79
2018-07-31T05:20:08.783Z,20.86
2018-07-31T05:21:08.784Z,20.89
2018-07-31T05:22:08.789Z,20.87
2018-07-31T05:23:08.788Z,20.95
2018-07-31T05:24:08.792Z,20.99
2018-07-31T05:25:08.798Z,21.11
2018-07-31T05:26:08.799Z,21.19
2018-07-31T05:27:08.808Z,21.20
2018-07-31T05:28:08.809Z,21.34
2018-07-31T05:29:08.815Z,21.26
2018-07-31T05:30:08.818Z,21.36
2018-07-31T05:31:08.825Z,21.56
2018-07-31T05:32:08.827Z,21.54
2018-07-31T05:33:08.830Z,21.71
2018-07-31T05:34:08.841Z,21.75
2018-07-31T05:35:08.840Z,21.83
2018-07-31T05:36:08.844Z,21.94
2018-07-31T05:37:08.848Z,22.04
2018-07-31T05:38:08.859Z,22.07
2018-07-31T05:39:08.857Z,22.17
2018-07-31T05:40:08.864Z,22.14
2018-07-31T05:41:08.868Z,22.28
2018-07-31T05:42:08.869Z,22.31
2018-07-31T05:43:08.875Z,22.38
2018-07-31T05:44:08.885Z,22.41
2018-07-31T05:45:08.884Z,22.57
2018-07-31T05:46:08.895Z,22.53
2018-07-31T05:47:08.896Z,22.69
2018-07-31T05:48:08.899Z,22.71
2018-07-31T05:49:08.903Z,22.83
2018-07-31T05:50:08.908Z,22.87
2018-07-31T05:51:08.913Z,22.93
2018-07-31T05:52:08.923Z,22.97
2018-07-31T05:53:08.921Z,23.12
2018-07-31T05:54:08.927Z,23.31
2018-07-31T05:55:08.934Z,23.29
2018-07-31T05:56:08.937Z,23.39
2018-07-31T05:57:08.942Z,23.52
2018-07-31T05:58:08.948Z,23.68
2018-07-31T05:59:08.953Z,23.68
2018-07-31T06:00:08.959Z,23.83
2018-07-31T06:01:08.959Z,24.00
2018-07-31T06:02:08.967Z,23.98
2018-07-31T06:03:08.982Z,24.05
2018-07-31T06:04:08.978Z,24.20
2018-07-31T06:05:08.985Z,24.20
2018-07-31T06:06:08.988Z,24.22
2018-07-31T06:07:08.994Z,24.34
2018-07-31T06:08:08.999Z,24.47
2018-07-31T06:09:09.004Z,24.61
2018-07-31T06:10:09.009Z,24.80
2018-07-31T06:11:09.019Z,25.16
2018-07-31T06:12:09.022Z,25.54
2018-07-31T06:13:09.032Z,25.94
2018-07-31T06:14:09.031Z,26.36
2018-07-31T06:15:09.089Z,26.86
2018-07-31T06:16:09.041Z,27.54
2018-07-31T06:17:09.046Z,28.22
2018-07-31T06:18:09.052Z,28.84
2018-07-31T06:19:09.061Z,29.13
2018-07-31T06:20:09.068Z,29.60
2018-07-31T06:21:09.068Z,30.14
2018-07-31T06:22:09.076Z,30.57
2018-07-31T06:23:09.081Z,30.75
2018-07-31T06:24:09.089Z,30.72
2018-07-31T06:25:09.094Z,30.90
2018-07-31T06:26:09.100Z,31.31
2018-07-31T06:27:09.108Z,31.64
2018-07-31T06:28:09.111Z,31.93
2018-07-31T06:29:09.134Z,32.32
2018-07-31T06:30:09.128Z,32.55
2018-07-31T06:31:09.134Z,32.67
2018-07-31T06:32:09.141Z,32.95
2018-07-31T06:33:09.158Z,33.20
2018-07-31T06:34:09.155Z,33.37
2018-07-31T06:35:09.163Z,33.51
2018-07-31T06:36:09.167Z,33.41
2018-07-31T06:37:09.185Z,33.31
2018-07-31T06:38:09.185Z,33.49
2018-07-31T06:39:09.201Z,33.51
2018-07-31T06:40:09.199Z,33.51
2018-07-31T06:41:09.210Z,33.76
2018-07-31T06:42:09.228Z,33.98
2018-07-31T06:43:09.224Z,34.31
2018-07-31T06:44:09.236Z,34.20
2018-07-31T06:45:09.242Z,34.24
2018-07-31T06:46:09.252Z,34.45
2018-07-31T06:47:09.261Z,34.60
2018-07-31T06:48:09.273Z,34.69
2018-07-31T06:49:09.328Z,34.64
2018-07-31T06:50:09.288Z,34.69
2018-07-31T06:51:09.299Z,34.86
2018-07-31T06:52:09.307Z,34.86
2018-07-31T06:53:09.320Z,35.03
2018-07-31T06:54:09.329Z,35.10
2018-07-31T06:55:09.340Z,35.20
2018-07-31T06:56:09.350Z,35.25
2018-07-31T06:57:09.358Z,35.40
2018-07-31T06:58:09.381Z,35.40
2018-07-31T06:59:09.380Z,35.37
2018-07-31T07:00:09.390Z,35.64
2018-07-31T07:01:09.399Z,35.93
2018-07-31T07:02:09.463Z,36.14
2018-07-31T07:03:09.419Z,36.03
2018-07-31T07:04:09.430Z,36.21
2018-07-31T07:05:09.441Z,36.11
2018-07-31T07:06:09.452Z,36.23
2018-07-31T07:07:09.465Z,36.20
2018-07-31T07:08:09.477Z,36.52
2018-07-31T07:09:09.531Z,36.94
2018-07-31T07:10:09.502Z,37.05
2018-07-31T07:11:09.511Z,36.77
2018-07-31T07:12:09.524Z,36.41
2018-07-31T07:13:09.533Z,35.95
2018-07-31T07:14:09.546Z,35.39
2018-07-31T07:15:09.558Z,35.35
2018-07-31T07:16:09.573Z,35.02
2018-07-31T07:17:09.582Z,34.95
2018-07-31T07:18:09.594Z,34.42
2018-07-31T07:19:09.619Z,34.34
2018-07-31T07:20:09.619Z,33.76
2018-07-31T07:21:09.631Z,33.86
2018-07-31T07:22:09.644Z,33.92
2018-07-31T07:23:09.655Z,33.71
2018-07-31T07:24:09.668Z,34.01
2018-07-31T07:25:09.680Z,33.43
2018-07-31T07:26:09.695Z,32.84
2018-07-31T07:27:09.703Z,32.36
2018-07-31T07:28:09.717Z,32.17
2018-07-31T07:29:09.732Z,31.91
2018-07-31T07:30:09.741Z,31.79
2018-07-31T07:31:09.750Z,32.05
2018-07-31T07:32:09.764Z,31.96
2018-07-31T07:33:09.777Z,31.96
2018-07-31T07:34:09.785Z,32.03
2018-07-31T07:35:09.795Z,32.06
2018-07-31T07:36:09.806Z,31.95
2018-07-31T07:37:09.816Z,32.71
2018-07-31T07:38:09.827Z,32.88
2018-07-31T07:39:09.838Z,33.63
2018-07-31T07:40:09.877Z,34.57
2018-07-31T07:41:09.862Z,34.88
2018-07-31T07:42:09.874Z,35.10
2018-07-31T07:43:09.885Z,35.51
2018-07-31T07:44:09.894Z,36.11
2018-07-31T07:45:09.905Z,36.26
2018-07-31T07:46:09.915Z,36.33
2018-07-31T07:47:09.929Z,36.20
2018-07-31T07:48:09.940Z,36.15
2018-07-31T07:49:09.953Z,36.54
2018-07-31T07:50:09.963Z,36.64
2018-07-31T07:51:09.979Z,36.76
2018-07-31T07:52:09.991Z,36.83
2018-07-31T07:53:10.005Z,37.14
2018-07-31T07:54:10.055Z,37.35
2018-07-31T07:55:10.029Z,37.33
2018-07-31T07:56:10.047Z,37.39
2018-07-31T07:57:10.057Z,37.58
2018-07-31T07:58:10.071Z,37.70
2018-07-31T07:59:10.086Z,37.02
2018-07-31T08:00:10.103Z,36.56
2018-07-31T08:01:10.113Z,36.57
2018-07-31T08:02:10.126Z,36.07
2018-07-31T08:03:10.141Z,36.14
2018-07-31T08:04:10.262Z,36.23
2018-07-31T08:05:10.173Z,36.04
2018-07-31T08:06:10.187Z,35.91
2018-07-31T08:07:10.201Z,35.89
2018-07-31T08:08:10.238Z,36.17
2018-07-31T08:09:10.232Z,36.45
2018-07-31T08:10:10.246Z,36.64
2018-07-31T08:11:10.262Z,36.82
2018-07-31T08:12:10.277Z,36.73
2018-07-31T08:13:10.293Z,36.67
2018-07-31T08:14:10.309Z,36.91
2018-07-31T08:15:10.325Z,36.95
2018-07-31T08:16:10.337Z,37.02
2018-07-31T08:17:10.356Z,37.01
2018-07-31T08:18:10.371Z,37.02
2018-07-31T08:19:10.385Z,36.95
2018-07-31T08:20:10.403Z,36.80
2018-07-31T08:21:10.420Z,36.61
2018-07-31T08:22:10.436Z,36.57
2018-07-31T08:23:10.453Z,35.91
2018-07-31T08:24:10.467Z,35.70
2018-07-31T08:25:10.485Z,35.70
2018-07-31T08:26:10.505Z,35.48
2018-07-31T08:27:10.531Z,35.26
2018-07-31T08:39:35.989Z,34.08
2018-07-31T08:40:35.984Z,34.42
2018-07-31T08:42:29.355Z,34.98
2018-07-31T08:43:29.348Z,35.30
2018-07-31T08:45:22.263Z,35.67
2018-07-31T08:46:22.258Z,35.63
2018-07-31T08:47:22.278Z,35.58
2018-07-31T08:48:22.292Z,35.35
2018-07-31T08:49:22.304Z,34.94
2018-07-31T08:50:22.317Z,34.70
2018-07-31T08:51:22.336Z,34.54
2018-07-31T08:52:22.347Z,34.17
2018-07-31T08:53:22.360Z,34.16
2018-07-31T08:54:22.375Z,34.31
2018-07-31T08:55:22.389Z,34.20
2018-07-31T08:56:22.402Z,34.07
2018-07-31T08:57:22.416Z,34.08
2018-07-31T08:58:22.431Z,34.04
2018-07-31T08:59:22.447Z,33.95
2018-07-31T09:00:22.458Z,33.82
2018-07-31T09:01:22.473Z,33.71
2018-07-31T09:02:22.485Z,33.55
2018-07-31T09:03:22.507Z,33.48
2018-07-31T09:04:22.513Z,33.45
2018-07-31T09:05:22.525Z,33.45
2018-07-31T09:06:22.536Z,33.31
2018-07-31T09:07:22.551Z,33.27
2018-07-31T09:08:22.629Z,33.39
2018-07-31T09:09:22.578Z,33.22
2018-07-31T09:10:22.593Z,33.22
2018-07-31T09:11:22.600Z,33.19
2018-07-31T09:12:22.612Z,33.11
2018-07-31T09:13:22.624Z,32.91
2018-07-31T09:14:22.638Z,32.98
2018-07-31T09:15:22.663Z,32.92
2018-07-31T09:16:22.659Z,33.26
2018-07-31T09:17:22.708Z,33.52
2018-07-31T09:18:22.683Z,33.82
2018-07-31T09:19:22.701Z,34.31
2018-07-31T09:20:22.706Z,34.72
2018-07-31T09:21:22.718Z,34.98
2018-07-31T09:22:22.772Z,35.15
2018-07-31T09:23:22.741Z,35.39
2018-07-31T09:24:22.764Z,35.73
2018-07-31T09:25:22.768Z,35.86
2018-07-31T09:26:22.793Z,35.88
2018-07-31T09:27:22.797Z,35.88
2018-07-31T09:28:22.806Z,35.95
2018-07-31T09:29:22.823Z,35.70
2018-07-31T09:30:22.861Z,35.55
2018-07-31T09:31:22.844Z,35.63
2018-07-31T09:32:22.854Z,35.67
2018-07-31T09:33:22.878Z,35.48
2018-07-31T09:34:22.884Z,35.64
2018-07-31T09:35:22.896Z,35.60
2018-07-31T09:36:22.918Z,35.76
2018-07-31T09:37:22.921Z,35.62
2018-07-31T09:38:22.933Z,35.42
2018-07-31T09:39:22.943Z,35.33
2018-07-31T09:40:23.084Z,35.14
2018-07-31T09:41:22.968Z,34.98
2018-07-31T09:42:22.994Z,35.17
2018-07-31T09:43:22.996Z,35.29
2018-07-31T09:44:23.008Z,35.52
2018-07-31T09:45:23.020Z,35.79
2018-07-31T09:46:23.032Z,36.14
2018-07-31T09:47:23.050Z,36.26
2018-07-31T09:48:23.057Z,36.08
2018-07-31T09:49:23.069Z,36.33
2018-07-31T09:50:23.086Z,36.41
2018-07-31T09:51:23.094Z,36.56
2018-07-31T09:52:23.108Z,36.68
2018-07-31T09:53:23.121Z,36.80
2018-07-31T09:54:23.134Z,37.04
2018-07-31T09:55:23.145Z,37.19
2018-07-31T09:56:23.158Z,37.31
2018-07-31T09:57:23.172Z,37.42
2018-07-31T09:58:23.183Z,37.43
2018-07-31T09:59:23.195Z,37.43
2018-07-31T10:00:23.212Z,37.41
2018-07-31T10:01:23.220Z,37.54
2018-07-31T10:02:23.235Z,37.47
2018-07-31T10:03:23.259Z,37.51
2018-07-31T10:04:23.264Z,37.28
2018-07-31T10:05:23.326Z,37.59
2018-07-31T10:06:23.282Z,37.70
2018-07-31T10:07:23.303Z,37.85
2018-07-31T10:08:23.308Z,37.85
2018-07-31T10:09:23.325Z,37.71
2018-07-31T10:10:23.332Z,37.56
2018-07-31T10:11:23.348Z,37.56
2018-07-31T10:12:23.364Z,37.70
2018-07-31T10:13:23.374Z,37.51
2018-07-31T10:14:23.386Z,37.46
2018-07-31T10:15:23.403Z,37.43
2018-07-31T10:16:23.411Z,36.97
2018-07-31T10:17:23.425Z,37.04
2018-07-31T10:18:23.440Z,37.10
2018-07-31T10:19:23.450Z,37.02
2018-07-31T10:20:23.463Z,36.97
2018-07-31T10:21:23.476Z,37.09
2018-07-31T10:22:23.490Z,37.01
2018-07-31T10:23:23.507Z,36.85
2018-07-31T10:24:23.519Z,36.80
2018-07-31T10:25:23.528Z,36.73
2018-07-31T10:26:23.540Z,36.82
2018-07-31T10:27:23.553Z,36.73
2018-07-31T10:28:23.573Z,36.70
2018-07-31T10:29:23.579Z,36.86
2018-07-31T10:30:23.591Z,37.02
2018-07-31T10:31:23.604Z,37.16
2018-07-31T10:32:23.626Z,37.29
2018-07-31T10:33:23.628Z,37.23
2018-07-31T10:34:23.638Z,37.35
2018-07-31T10:35:23.656Z,37.39
2018-07-31T10:36:23.664Z,37.56
2018-07-31T10:37:23.721Z,37.67
2018-07-31T10:38:23.704Z,37.74
2018-07-31T10:39:23.706Z,37.89
2018-07-31T10:40:23.720Z,38.01
2018-07-31T10:41:23.726Z,38.18
2018-07-31T10:42:23.742Z,38.15
2018-07-31T10:43:23.757Z,38.22
2018-07-31T10:44:23.771Z,38.14
2018-07-31T10:45:23.787Z,38.34
2018-07-31T10:46:23.795Z,38.44
2018-07-31T10:47:23.807Z,38.53
2018-07-31T10:48:23.819Z,38.67
2018-07-31T10:49:23.837Z,38.63
2018-07-31T10:50:23.845Z,38.64
2018-07-31T10:51:23.923Z,38.64
2018-07-31T10:52:23.872Z,38.66
2018-07-31T10:53:23.886Z,38.67
2018-07-31T10:54:23.895Z,38.82
2018-07-31T10:55:23.913Z,38.64
2018-07-31T10:56:23.924Z,38.53
2018-07-31T10:57:23.939Z,38.49
2018-07-31T10:58:23.989Z,38.33
2018-07-31T10:59:23.965Z,38.17
2018-07-31T11:00:24.020Z,38.12
2018-07-31T11:01:24.057Z,38.11
2018-07-31T11:02:24.009Z,38.04
2018-07-31T11:03:24.020Z,37.92
2018-07-31T11:04:24.063Z,37.42
2018-07-31T11:05:24.047Z,36.99
2018-07-31T11:06:24.141Z,36.56
2018-07-31T11:07:24.073Z,36.23
2018-07-31T11:08:24.084Z,36.00
2018-07-31T11:09:24.102Z,35.89
2018-07-31T11:10:24.127Z,35.86
2018-07-31T11:11:24.132Z,35.69
2018-07-31T11:12:24.135Z,35.50
2018-07-31T11:13:24.151Z,35.60
2018-07-31T11:14:24.160Z,35.84
2018-07-31T11:15:24.180Z,36.21
2018-07-31T11:16:24.188Z,36.45
2018-07-31T11:17:24.200Z,36.54
2018-07-31T11:18:24.215Z,36.64
2018-07-31T11:19:24.228Z,36.82
2018-07-31T11:20:24.239Z,36.95
2018-07-31T11:21:24.252Z,37.01
2018-07-31T11:22:24.280Z,37.33
2018-07-31T11:23:24.278Z,37.55
2018-07-31T11:24:24.289Z,37.86
2018-07-31T11:25:24.300Z,38.04
2018-07-31T11:26:24.318Z,38.10
2018-07-31T11:27:24.371Z,38.33
2018-07-31T11:28:24.355Z,38.38
2018-07-31T11:29:24.352Z,38.42
2018-07-31T11:30:24.362Z,38.49
2018-07-31T11:31:24.383Z,38.53
2018-07-31T11:32:24.388Z,38.45
2018-07-31T11:33:24.405Z,38.30
2018-07-31T11:34:24.411Z,37.90
2018-07-31T11:35:24.425Z,37.48
2018-07-31T11:36:24.438Z,36.99
2018-07-31T11:37:24.451Z,36.99
2018-07-31T11:38:24.508Z,37.02
2018-07-31T11:39:24.500Z,37.17
2018-07-31T11:40:24.490Z,37.48
2018-07-31T11:41:24.504Z,37.83
2018-07-31T11:42:24.513Z,37.99
2018-07-31T11:43:24.526Z,38.05
2018-07-31T11:44:24.543Z,38.03
2018-07-31T11:45:24.553Z,38.23
2018-07-31T11:46:24.565Z,38.07
2018-07-31T11:47:24.578Z,37.93
2018-07-31T11:48:24.589Z,37.66
2018-07-31T11:49:24.608Z,37.59
2018-07-31T11:50:24.616Z,37.74
2018-07-31T11:51:24.629Z,37.76
2018-07-31T11:52:24.645Z,38.03
2018-07-31T11:53:24.664Z,38.08
2018-07-31T11:54:24.669Z,38.30
2018-07-31T11:55:24.677Z,38.44
2018-07-31T11:56:24.692Z,38.33
2018-07-31T11:57:24.705Z,38.55
2018-07-31T11:58:24.717Z,38.83
2018-07-31T11:59:24.730Z,38.89
2018-07-31T12:00:24.743Z,38.89
2018-07-31T12:01:24.761Z,38.36
2018-07-31T12:02:24.768Z,38.04
2018-07-31T12:03:24.781Z,38.10
2018-07-31T12:04:24.794Z,38.20
2018-07-31T12:05:24.807Z,38.42
2018-07-31T12:06:24.820Z,38.46
2018-07-31T12:07:24.835Z,38.36
2018-07-31T12:08:24.844Z,38.01
2018-07-31T12:09:24.864Z,37.58
2018-07-31T12:10:24.872Z,37.14
2018-07-31T12:11:24.931Z,36.95
2018-07-31T12:12:24.898Z,36.73
2018-07-31T12:13:24.913Z,36.72
2018-07-31T12:14:24.924Z,36.76
2018-07-31T12:15:24.935Z,36.94
2018-07-31T12:16:24.948Z,37.19
2018-07-31T12:17:24.966Z,37.35
2018-07-31T12:18:24.972Z,37.59
2018-07-31T12:19:24.990Z,37.73
2018-07-31T12:20:25.000Z,37.90
2018-07-31T12:21:25.013Z,38.08
2018-07-31T12:22:25.025Z,38.18
2018-07-31T12:23:25.041Z,38.23
2018-07-31T12:24:25.046Z,38.20
2018-07-31T12:25:25.065Z,38.17
2018-07-31T12:26:25.074Z,37.93
2018-07-31T12:27:25.090Z,37.68
2018-07-31T12:28:25.105Z,37.55
2018-07-31T12:29:25.110Z,37.46
2018-07-31T12:30:25.125Z,37.58
2018-07-31T12:31:25.137Z,37.68
2018-07-31T12:32:25.151Z,37.89
2018-07-31T12:33:25.162Z,38.07
2018-07-31T12:34:25.174Z,38.24
2018-07-31T12:35:25.187Z,38.26
2018-07-31T12:36:25.203Z,38.03
2018-07-31T12:37:25.212Z,37.98
2018-07-31T12:38:25.272Z,38.01
2018-07-31T12:39:25.254Z,37.96
2018-07-31T12:40:25.252Z,37.95
2018-07-31T12:41:25.261Z,37.92
2018-07-31T12:42:25.276Z,38.12
2018-07-31T12:43:25.302Z,38.24
2018-07-31T12:44:25.300Z,38.29
2018-07-31T12:45:25.311Z,38.44
2018-07-31T12:46:25.327Z,38.20
2018-07-31T12:47:25.337Z,38.20
2018-07-31T12:48:25.349Z,38.17
2018-07-31T12:49:25.394Z,37.86
2018-07-31T12:50:25.377Z,37.88
2018-07-31T12:51:25.389Z,38.05
2018-07-31T12:52:25.401Z,38.03
2018-07-31T12:53:25.415Z,38.24
2018-07-31T12:54:25.431Z,38.34
2018-07-31T12:55:25.439Z,38.33
2018-07-31T12:56:25.456Z,38.34
2018-07-31T12:57:25.463Z,38.45
2018-07-31T12:58:25.481Z,38.55
2018-07-31T12:59:25.499Z,38.60
2018-07-31T13:00:25.503Z,38.75
2018-07-31T13:01:25.516Z,38.96
2018-07-31T13:02:25.528Z,39.06
2018-07-31T13:03:25.538Z,39.20
2018-07-31T13:04:25.556Z,39.15
2018-07-31T13:05:25.568Z,39.03
2018-07-31T13:06:25.579Z,38.92
2018-07-31T13:07:25.593Z,38.76
2018-07-31T13:08:25.606Z,38.95
2018-07-31T13:09:25.645Z,38.96
2018-07-31T13:10:25.631Z,39.02
2018-07-31T13:11:25.642Z,39.24
2018-07-31T13:12:25.659Z,39.36
2018-07-31T13:13:25.669Z,39.40
2018-07-31T13:14:25.683Z,39.24
2018-07-31T13:15:25.701Z,39.36
2018-07-31T13:16:25.708Z,39.35
2018-07-31T13:17:25.722Z,39.14
2018-07-31T13:18:25.734Z,38.92
2018-07-31T13:19:25.749Z,38.53
2018-07-31T13:20:25.759Z,38.01
2018-07-31T13:21:25.777Z,38.03
2018-07-31T13:22:25.791Z,37.98